createdAt,value
2022-09-21T00:00:08.537Z,100.00
2022-09-21T00:05:10.303Z,100.00
2022-09-21T00:10:11.919Z,100.00
2022-09-21T00:15:14.469Z,100.00
2022-09-21T00:20:16.102Z,100.00
2022-09-21T00:25:19.811Z,100.00
2022-09-21T00:30:21.352Z,100.00
2022-09-21T00:35:22.968Z,100.00
2022-09-21T00:40:24.539Z,100.00
2022-09-21T00:45:26.968Z,100.00
2022-09-21T00:50:28.599Z,100.00
2022-09-21T00:55:37.792Z,100.00
2022-09-21T01:00:40.432Z,100.00
2022-09-21T01:05:42.118Z,100.00
2022-09-21T01:10:58.659Z,100.00
2022-09-21T01:16:04.815Z,100.00
2022-09-21T01:21:19.770Z,100.00
2022-09-21T01:26:36.539Z,100.00
2022-09-21T01:31:42.985Z,100.00
2022-09-21T01:36:47.818Z,100.00
2022-09-21T01:41:52.160Z,100.00
2022-09-21T01:46:54.581Z,100.00
2022-09-21T01:52:01.736Z,100.00
2022-09-21T01:57:17.625Z,100.00
2022-09-21T02:02:36.293Z,100.00
2022-09-21T02:07:39.603Z,100.00
2022-09-21T02:12:41.271Z,100.00
2022-09-21T02:18:14.150Z,100.00
2022-09-21T02:23:26.127Z,100.00
2022-09-21T02:28:39.957Z,100.00
2022-09-21T02:34:00.434Z,100.00
2022-09-21T02:39:15.338Z,100.00
2022-09-21T02:44:52.850Z,100.00
2022-09-21T02:50:01.747Z,100.00
2022-09-21T02:55:04.143Z,100.00
2022-09-21T03:00:06.533Z,100.00
2022-09-21T03:05:09.301Z,100.00
2022-09-21T03:10:10.934Z,100.00
2022-09-21T03:15:12.548Z,100.00
2022-09-21T03:20:14.302Z,100.00
2022-09-21T03:25:15.932Z,100.00
2022-09-21T03:30:17.549Z,100.00
2022-09-21T03:35:23.640Z,100.00
2022-09-21T03:40:26.963Z,100.00
2022-09-21T03:45:28.646Z,100.00
2022-09-21T03:50:30.410Z,100.00
2022-09-21T03:55:32.749Z,100.00
2022-09-21T04:00:35.891Z,100.00
2022-09-21T04:05:39.269Z,100.00
2022-09-21T04:10:42.721Z,100.00
2022-09-21T04:15:44.361Z,100.00
2022-09-21T04:20:45.947Z,100.00
2022-09-21T04:25:51.270Z,100.00
2022-09-21T04:30:54.416Z,100.00
2022-09-21T04:35:56.580Z,100.00
2022-09-21T04:40:58.939Z,100.00
2022-09-21T04:46:08.558Z,100.00
2022-09-21T04:51:11.238Z,100.00
2022-09-21T04:56:14.610Z,100.00
2022-09-21T05:01:17.282Z,100.00
2022-09-21T05:06:18.987Z,100.00
2022-09-21T05:11:20.612Z,100.00
2022-09-21T05:16:22.197Z,100.00
2022-09-21T05:21:23.837Z,100.00
2022-09-21T05:26:25.737Z,100.00
2022-09-21T05:31:38.777Z,100.00
2022-09-21T05:36:55.622Z,100.00
2022-09-21T05:41:57.714Z,100.00
2022-09-21T05:47:24.330Z,100.00
2022-09-21T05:52:38.433Z,100.00
2022-09-21T05:57:58.694Z,100.00
2022-09-21T06:03:32.477Z,100.00
2022-09-21T06:08:34.148Z,100.00
2022-09-21T06:13:35.982Z,100.00
2022-09-21T06:18:42.365Z,100.00
2022-09-21T06:23:44.002Z,100.00
2022-09-21T06:28:45.617Z,100.00
2022-09-21T06:33:48.245Z,100.00
2022-09-21T06:38:50.091Z,100.00
2022-09-21T06:43:56.075Z,100.00
2022-09-21T06:48:58.350Z,100.00
2022-09-21T06:53:59.983Z,100.00
2022-09-21T06:59:01.825Z,100.00
2022-09-21T07:04:03.628Z,100.00
2022-09-21T07:14:27.053Z,100.00
2022-09-21T07:19:28.777Z,100.00
2022-09-21T07:24:30.494Z,100.00
2022-09-21T07:29:32.407Z,100.00
2022-09-21T07:34:37.456Z,100.00
2022-09-21T07:39:39.175Z,100.00
2022-09-21T07:44:41.211Z,100.00
2022-09-21T07:49:42.861Z,100.00
2022-09-21T07:54:45.071Z,100.00
2022-09-21T07:59:46.846Z,100.00
2022-09-21T08:04:48.500Z,100.00
2022-09-21T08:09:51.231Z,100.00
2022-09-21T08:14:52.823Z,100.00
2022-09-21T08:19:54.795Z,100.00
2022-09-21T08:24:57.166Z,100.00
2022-09-21T08:29:58.800Z,100.00
2022-09-21T08:35:00.608Z,100.00
2022-09-21T08:40:04.388Z,100.00
2022-09-21T08:45:17.609Z,100.00
2022-09-21T08:50:22.474Z,100.00
2022-09-21T08:55:24.818Z,100.00
2022-09-21T09:00:29.698Z,100.00
2022-09-21T09:06:05.812Z,100.00
2022-09-21T09:11:15.039Z,98.11
2022-09-21T09:16:31.912Z,96.74
2022-09-21T09:21:40.646Z,93.27
2022-09-21T09:27:23.144Z,86.51
2022-09-21T09:32:36.859Z,82.98
2022-09-21T09:37:42.114Z,85.72
2022-09-21T09:42:59.248Z,85.25
2022-09-21T09:48:21.984Z,79.42
2022-09-21T09:53:26.649Z,80.69
2022-09-21T09:58:41.638Z,77.23
2022-09-21T10:03:44.309Z,59.17
2022-09-21T10:08:48.800Z,45.72
2022-09-21T10:13:52.567Z,38.16
2022-09-21T10:18:58.933Z,33.81
2022-09-21T10:24:04.798Z,35.54
2022-09-21T10:29:25.448Z,34.31
2022-09-21T10:34:32.573Z,30.20
2022-09-21T10:39:34.783Z,27.81
2022-09-21T10:44:42.257Z,36.61
2022-09-21T10:49:56.429Z,45.51
2022-09-21T10:54:58.176Z,39.19
2022-09-21T11:00:35.694Z,32.96
2022-09-21T11:06:02.470Z,29.05
2022-09-21T11:11:25.833Z,27.17
2022-09-21T11:16:40.922Z,30.18
2022-09-21T11:21:55.354Z,38.60
2022-09-21T11:27:04.884Z,44.48
2022-09-21T11:32:34.507Z,42.55
2022-09-21T11:38:01.447Z,33.95
2022-09-21T11:43:08.969Z,31.34
2022-09-21T11:48:19.969Z,38.17
2022-09-21T11:54:27.862Z,39.20
2022-09-21T11:59:44.072Z,33.05
2022-09-21T12:04:58.118Z,30.97
2022-09-21T12:09:59.664Z,29.56
2022-09-21T12:15:20.302Z,29.20
2022-09-21T12:20:47.266Z,29.64
2022-09-21T12:25:57.181Z,29.22
2022-09-21T12:31:04.302Z,32.90
2022-09-21T12:36:10.424Z,36.94
2022-09-21T12:41:37.440Z,35.67
2022-09-21T12:47:09.326Z,38.91
2022-09-21T12:52:18.095Z,39.33
2022-09-21T12:58:14.663Z,39.07
2022-09-21T13:03:25.955Z,39.32
2022-09-21T13:08:36.644Z,36.29
2022-09-21T13:13:44.563Z,37.97
2022-09-21T13:18:56.175Z,40.72
2022-09-21T13:24:03.626Z,43.00
2022-09-21T13:29:28.307Z,45.32
2022-09-21T13:34:43.408Z,46.64
2022-09-21T13:40:06.249Z,48.52
2022-09-21T13:45:13.944Z,49.18
2022-09-21T13:50:42.662Z,50.01
2022-09-21T13:55:53.988Z,48.93
2022-09-21T14:01:03.421Z,48.27
2022-09-21T14:06:19.566Z,47.56
2022-09-21T14:11:23.980Z,49.28
2022-09-21T14:16:34.390Z,44.87
2022-09-21T14:21:36.155Z,43.94
2022-09-21T14:26:41.200Z,43.61
2022-09-21T14:31:43.519Z,43.83
2022-09-21T14:36:50.128Z,44.97
2022-09-21T14:41:54.837Z,45.86
2022-09-21T14:47:20.843Z,48.46
2022-09-21T14:52:41.220Z,49.81
2022-09-21T14:58:11.450Z,49.28
2022-09-21T15:03:38.994Z,51.22
2022-09-21T15:09:24.623Z,51.46
2022-09-21T15:14:32.318Z,50.47
2022-09-21T15:19:37.562Z,49.09
2022-09-21T15:24:59.123Z,48.49
2022-09-21T15:30:04.934Z,48.18
2022-09-21T15:35:28.962Z,48.18
2022-09-21T15:40:36.494Z,48.18
2022-09-21T15:46:00.878Z,46.18
2022-09-21T15:51:14.130Z,46.31
2022-09-21T15:56:27.154Z,48.08
2022-09-21T16:01:28.935Z,50.92
2022-09-21T16:06:39.001Z,54.57
2022-09-21T16:11:41.390Z,56.53
2022-09-21T16:17:06.273Z,58.70
2022-09-21T16:22:13.851Z,59.41
2022-09-21T16:27:18.362Z,60.74
2022-09-21T16:32:31.935Z,62.20
2022-09-21T16:37:33.552Z,63.61
2022-09-21T16:42:35.220Z,64.66
2022-09-21T16:47:37.698Z,65.99
2022-09-21T16:52:39.476Z,66.90
2022-09-21T16:57:42.764Z,70.10
2022-09-21T17:02:45.305Z,71.05
2022-09-21T17:07:53.688Z,73.40
2022-09-21T17:12:56.097Z,74.37
2022-09-21T17:17:58.968Z,75.21
2022-09-21T17:23:03.117Z,78.10
2022-09-21T17:28:12.534Z,79.53
2022-09-21T17:33:14.124Z,80.89
2022-09-21T17:38:15.690Z,82.93
2022-09-21T17:43:28.316Z,84.23
2022-09-21T17:48:34.047Z,86.50
2022-09-21T17:53:38.845Z,87.46
2022-09-21T17:59:03.378Z,88.84
2022-09-21T18:04:06.869Z,90.23
2022-09-21T18:09:09.920Z,91.18
2022-09-21T18:14:29.364Z,92.75
2022-09-21T18:19:49.582Z,93.72
2022-09-21T18:24:52.430Z,94.34
2022-09-21T18:29:54.420Z,95.46
2022-09-21T18:35:12.573Z,96.28
2022-09-21T18:40:22.206Z,97.04
2022-09-21T18:45:28.390Z,98.40
2022-09-21T18:50:45.542Z,100.00
2022-09-21T18:55:47.952Z,100.00
2022-09-21T19:00:52.082Z,100.00
2022-09-21T19:06:12.275Z,100.00
2022-09-21T19:11:27.467Z,100.00
2022-09-21T19:16:39.998Z,100.00
2022-09-21T19:21:53.811Z,100.00
2022-09-21T19:27:10.789Z,100.00
2022-09-21T19:32:26.953Z,100.00
2022-09-21T19:37:28.685Z,100.00
2022-09-21T19:42:59.378Z,100.00
2022-09-21T19:48:08.890Z,100.00
2022-09-21T19:53:30.394Z,100.00
2022-09-21T19:58:51.141Z,100.00
2022-09-21T20:03:53.729Z,100.00
2022-09-21T20:09:02.646Z,100.00
2022-09-21T20:14:25.492Z,100.00
2022-09-21T20:19:55.875Z,100.00
2022-09-21T20:25:15.496Z,100.00
2022-09-21T20:30:21.003Z,100.00
2022-09-21T20:35:25.277Z,100.00
2022-09-21T20:40:29.018Z,100.00
2022-09-21T20:45:32.235Z,100.00
2022-09-21T20:50:33.861Z,100.00
2022-09-21T20:55:35.510Z,100.00
2022-09-21T21:00:37.829Z,100.00
2022-09-21T21:05:39.718Z,100.00
2022-09-21T21:10:46.610Z,100.00
2022-09-21T21:15:53.011Z,100.00
2022-09-21T21:20:54.720Z,100.00
2022-09-21T21:25:59.175Z,100.00
2022-09-21T21:31:01.062Z,100.00
2022-09-21T21:36:07.500Z,100.00
2022-09-21T21:41:12.715Z,100.00
2022-09-21T21:46:14.457Z,100.00
2022-09-21T21:51:16.173Z,100.00
2022-09-21T21:56:20.109Z,100.00
2022-09-21T22:01:26.459Z,100.00
2022-09-21T22:06:30.544Z,100.00
2022-09-21T22:11:32.708Z,100.00
2022-09-21T22:16:37.687Z,100.00
2022-09-21T22:21:42.387Z,100.00
2022-09-21T22:26:45.056Z,100.00
2022-09-21T22:31:48.858Z,100.00
2022-09-21T22:36:50.874Z,100.00
2022-09-21T22:41:52.473Z,100.00
2022-09-21T22:46:54.051Z,100.00
2022-09-21T22:51:55.638Z,100.00
2022-09-21T22:56:57.565Z,100.00
2022-09-21T23:01:59.176Z,100.00
2022-09-21T23:07:00.754Z,100.00
2022-09-21T23:12:02.616Z,100.00
2022-09-21T23:17:04.293Z,100.00
2022-09-21T23:22:06.630Z,100.00
2022-09-21T23:27:08.346Z,100.00
2022-09-21T23:32:09.981Z,100.00
2022-09-21T23:37:11.637Z,100.00
2022-09-21T23:42:13.258Z,100.00
2022-09-21T23:47:14.885Z,100.00
2022-09-21T23:52:16.470Z,100.00
2022-09-21T23:57:18.266Z,100.00
